sensor_id;sensor_type;location;lat;lon;timestamp;temperature;humidity
4245;DHT22;2136;48.502;9.194;2023-04-26T00:01:28;9.40;99.90
4245;DHT22;2136;48.502;9.194;2023-04-26T00:03:55;9.40;99.20
4245;DHT22;2136;48.502;9.194;2023-04-26T00:06:22;9.30;99.50
4245;DHT22;2136;48.502;9.194;2023-04-26T00:08:51;9.40;99.50
4245;DHT22;2136;48.502;9.194;2023-04-26T00:11:18;9.30;99.40
4245;DHT22;2136;48.502;9.194;2023-04-26T00:13:46;9.30;99.40
4245;DHT22;2136;48.502;9.194;2023-04-26T00:16:13;9.20;99.50
4245;DHT22;2136;48.502;9.194;2023-04-26T00:18:41;9.20;99.10
4245;DHT22;2136;48.502;9.194;2023-04-26T00:21:07;9.20;98.70
4245;DHT22;2136;48.502;9.194;2023-04-26T00:23:34;9.10;98.70
4245;DHT22;2136;48.502;9.194;2023-04-26T00:26:02;9.00;98.80
4245;DHT22;2136;48.502;9.194;2023-04-26T00:28:29;9.00;99.20
4245;DHT22;2136;48.502;9.194;2023-04-26T00:30:57;9.00;99.60
4245;DHT22;2136;48.502;9.194;2023-04-26T00:33:24;8.90;99.90
4245;DHT22;2136;48.502;9.194;2023-04-26T00:35:51;8.90;99.90
4245;DHT22;2136;48.502;9.194;2023-04-26T00:38:18;8.90;99.90
4245;DHT22;2136;48.502;9.194;2023-04-26T00:40:45;8.80;99.90
4245;DHT22;2136;48.502;9.194;2023-04-26T00:43:12;8.80;99.90
4245;DHT22;2136;48.502;9.194;2023-04-26T00:45:39;8.80;99.90
4245;DHT22;2136;48.502;9.194;2023-04-26T00:48:07;8.80;99.90
4245;DHT22;2136;48.502;9.194;2023-04-26T00:50:34;8.70;99.90
4245;DHT22;2136;48.502;9.194;2023-04-26T00:53:01;8.70;99.90
4245;DHT22;2136;48.502;9.194;2023-04-26T00:55:29;8.80;99.90
4245;DHT22;2136;48.502;9.194;2023-04-26T00:57:55;8.70;99.90
4245;DHT22;2136;48.502;9.194;2023-04-26T01:00:22;8.70;99.90
4245;DHT22;2136;48.502;9.194;2023-04-26T01:02:50;8.60;99.90
4245;DHT22;2136;48.502;9.194;2023-04-26T01:05:19;8.70;99.90
4245;DHT22;2136;48.502;9.194;2023-04-26T01:07:46;8.60;99.90
4245;DHT22;2136;48.502;9.194;2023-04-26T01:10:13;8.60;99.90
4245;DHT22;2136;48.502;9.194;2023-04-26T01:12:40;8.60;99.90
4245;DHT22;2136;48.502;9.194;2023-04-26T01:15:09;8.60;99.90
4245;DHT22;2136;48.502;9.194;2023-04-26T01:17:37;8.50;99.90
4245;DHT22;2136;48.502;9.194;2023-04-26T01:20:05;8.50;99.90
4245;DHT22;2136;48.502;9.194;2023-04-26T01:22:35;8.50;99.90
4245;DHT22;2136;48.502;9.194;2023-04-26T01:25:03;8.50;99.90
4245;DHT22;2136;48.502;9.194;2023-04-26T01:27:33;8.60;99.90
4245;DHT22;2136;48.502;9.194;2023-04-26T01:30:00;8.60;99.90
4245;DHT22;2136;48.502;9.194;2023-04-26T01:32:27;8.70;99.90
4245;DHT22;2136;48.502;9.194;2023-04-26T01:34:54;8.70;99.90
4245;DHT22;2136;48.502;9.194;2023-04-26T01:37:21;8.60;99.90
4245;DHT22;2136;48.502;9.194;2023-04-26T01:39:51;8.70;99.90
4245;DHT22;2136;48.502;9.194;2023-04-26T01:42:23;8.70;99.90
4245;DHT22;2136;48.502;9.194;2023-04-26T01:44:50;8.90;99.90
4245;DHT22;2136;48.502;9.194;2023-04-26T01:47:17;8.70;99.90
4245;DHT22;2136;48.502;9.194;2023-04-26T01:49:44;8.70;99.90
4245;DHT22;2136;48.502;9.194;2023-04-26T01:52:11;8.90;99.90
4245;DHT22;2136;48.502;9.194;2023-04-26T01:54:38;8.80;99.90
4245;DHT22;2136;48.502;9.194;2023-04-26T01:57:06;8.90;99.90
4245;DHT22;2136;48.502;9.194;2023-04-26T01:59:33;8.90;99.90
4245;DHT22;2136;48.502;9.194;2023-04-26T02:02:00;8.90;99.90
4245;DHT22;2136;48.502;9.194;2023-04-26T02:04:27;8.70;99.90
4245;DHT22;2136;48.502;9.194;2023-04-26T02:06:54;8.80;99.90
4245;DHT22;2136;48.502;9.194;2023-04-26T02:09:21;8.80;99.90
4245;DHT22;2136;48.502;9.194;2023-04-26T02:11:48;8.70;99.90
4245;DHT22;2136;48.502;9.194;2023-04-26T02:14:17;8.60;99.90
4245;DHT22;2136;48.502;9.194;2023-04-26T02:16:44;8.60;99.90
4245;DHT22;2136;48.502;9.194;2023-04-26T02:19:11;8.50;99.90
4245;DHT22;2136;48.502;9.194;2023-04-26T02:21:52;8.50;99.90
4245;DHT22;2136;48.502;9.194;2023-04-26T02:24:19;8.60;99.90
4245;DHT22;2136;48.502;9.194;2023-04-26T02:26:47;8.40;99.90
4245;DHT22;2136;48.502;9.194;2023-04-26T02:29:14;8.30;99.90
4245;DHT22;2136;48.502;9.194;2023-04-26T02:31:42;8.20;99.90
4245;DHT22;2136;48.502;9.194;2023-04-26T02:34:09;8.20;99.90
4245;DHT22;2136;48.502;9.194;2023-04-26T02:36:36;8.10;99.90
4245;DHT22;2136;48.502;9.194;2023-04-26T02:39:03;8.00;99.90
4245;DHT22;2136;48.502;9.194;2023-04-26T02:41:32;7.90;99.90
4245;DHT22;2136;48.502;9.194;2023-04-26T02:43:59;7.90;99.90
4245;DHT22;2136;48.502;9.194;2023-04-26T02:46:25;7.80;99.90
4245;DHT22;2136;48.502;9.194;2023-04-26T02:48:54;7.70;99.90
4245;DHT22;2136;48.502;9.194;2023-04-26T02:51:21;7.70;99.90
4245;DHT22;2136;48.502;9.194;2023-04-26T02:53:47;7.60;99.90
4245;DHT22;2136;48.502;9.194;2023-04-26T02:56:14;7.60;99.90
4245;DHT22;2136;48.502;9.194;2023-04-26T02:58:41;7.60;99.90
4245;DHT22;2136;48.502;9.194;2023-04-26T03:01:08;7.50;99.90
4245;DHT22;2136;48.502;9.194;2023-04-26T03:03:37;7.50;99.90
4245;DHT22;2136;48.502;9.194;2023-04-26T03:06:05;7.50;99.90
4245;DHT22;2136;48.502;9.194;2023-04-26T03:08:32;7.60;99.90
4245;DHT22;2136;48.502;9.194;2023-04-26T03:11:01;7.60;99.90
4245;DHT22;2136;48.502;9.194;2023-04-26T03:13:28;7.50;99.90
4245;DHT22;2136;48.502;9.194;2023-04-26T03:15:54;7.50;99.90
4245;DHT22;2136;48.502;9.194;2023-04-26T03:18:21;7.50;99.90
4245;DHT22;2136;48.502;9.194;2023-04-26T03:20:48;7.50;99.90
4245;DHT22;2136;48.502;9.194;2023-04-26T03:23:16;7.60;99.90
4245;DHT22;2136;48.502;9.194;2023-04-26T03:25:45;7.50;99.90
4245;DHT22;2136;48.502;9.194;2023-04-26T03:28:12;7.70;99.90
4245;DHT22;2136;48.502;9.194;2023-04-26T03:30:39;7.50;99.90
4245;DHT22;2136;48.502;9.194;2023-04-26T03:33:05;7.60;99.90
4245;DHT22;2136;48.502;9.194;2023-04-26T03:35:32;7.40;99.90
4245;DHT22;2136;48.502;9.194;2023-04-26T03:37:59;7.40;99.90
4245;DHT22;2136;48.502;9.194;2023-04-26T03:40:27;7.40;99.90
4245;DHT22;2136;48.502;9.194;2023-04-26T03:42:54;7.30;99.90
4245;DHT22;2136;48.502;9.194;2023-04-26T03:45:21;7.30;99.90
4245;DHT22;2136;48.502;9.194;2023-04-26T03:47:49;7.30;99.90
4245;DHT22;2136;48.502;9.194;2023-04-26T03:50:16;7.20;99.90
4245;DHT22;2136;48.502;9.194;2023-04-26T03:52:43;7.10;99.90
4245;DHT22;2136;48.502;9.194;2023-04-26T03:55:10;7.00;99.90
4245;DHT22;2136;48.502;9.194;2023-04-26T03:57:38;7.00;99.90
4245;DHT22;2136;48.502;9.194;2023-04-26T04:00:06;7.00;99.90
4245;DHT22;2136;48.502;9.194;2023-04-26T04:02:34;6.90;99.90
4245;DHT22;2136;48.502;9.194;2023-04-26T04:05:01;6.80;99.90
4245;DHT22;2136;48.502;9.194;2023-04-26T04:07:28;6.80;99.90
4245;DHT22;2136;48.502;9.194;2023-04-26T04:09:57;6.70;99.90
4245;DHT22;2136;48.502;9.194;2023-04-26T04:12:24;6.70;99.90
4245;DHT22;2136;48.502;9.194;2023-04-26T04:14:53;6.70;99.90
4245;DHT22;2136;48.502;9.194;2023-04-26T04:17:19;6.80;99.90
4245;DHT22;2136;48.502;9.194;2023-04-26T04:19:46;6.60;99.90
4245;DHT22;2136;48.502;9.194;2023-04-26T04:22:13;6.60;99.90
4245;DHT22;2136;48.502;9.194;2023-04-26T04:24:40;6.60;99.90
4245;DHT22;2136;48.502;9.194;2023-04-26T04:27:08;6.70;99.90
4245;DHT22;2136;48.502;9.194;2023-04-26T04:29:36;6.70;99.90
4245;DHT22;2136;48.502;9.194;2023-04-26T04:32:04;6.90;99.90
4245;DHT22;2136;48.502;9.194;2023-04-26T04:34:33;6.80;99.90
4245;DHT22;2136;48.502;9.194;2023-04-26T04:37:00;6.80;99.90
4245;DHT22;2136;48.502;9.194;2023-04-26T04:39:28;6.70;99.90
4245;DHT22;2136;48.502;9.194;2023-04-26T04:41:55;6.90;99.90
4245;DHT22;2136;48.502;9.194;2023-04-26T04:44:23;6.70;99.90
4245;DHT22;2136;48.502;9.194;2023-04-26T04:46:51;6.80;99.90
4245;DHT22;2136;48.502;9.194;2023-04-26T04:49:20;6.70;99.90
4245;DHT22;2136;48.502;9.194;2023-04-26T04:51:47;6.80;99.90
4245;DHT22;2136;48.502;9.194;2023-04-26T04:54:15;6.80;99.90
4245;DHT22;2136;48.502;9.194;2023-04-26T04:56:42;6.80;99.90
4245;DHT22;2136;48.502;9.194;2023-04-26T04:59:09;6.90;99.90
4245;DHT22;2136;48.502;9.194;2023-04-26T05:01:36;6.90;99.90
4245;DHT22;2136;48.502;9.194;2023-04-26T05:04:03;6.90;99.90
4245;DHT22;2136;48.502;9.194;2023-04-26T05:06:32;7.00;99.90
4245;DHT22;2136;48.502;9.194;2023-04-26T05:08:59;7.10;99.90
4245;DHT22;2136;48.502;9.194;2023-04-26T05:11:27;7.20;99.90
4245;DHT22;2136;48.502;9.194;2023-04-26T05:13:54;7.30;99.90
4245;DHT22;2136;48.502;9.194;2023-04-26T05:16:20;7.40;99.90
4245;DHT22;2136;48.502;9.194;2023-04-26T05:18:47;7.50;99.90
4245;DHT22;2136;48.502;9.194;2023-04-26T05:21:15;7.50;99.90
4245;DHT22;2136;48.502;9.194;2023-04-26T05:23:43;7.60;99.90
4245;DHT22;2136;48.502;9.194;2023-04-26T05:26:13;7.60;99.90
4245;DHT22;2136;48.502;9.194;2023-04-26T05:28:41;7.60;99.90
4245;DHT22;2136;48.502;9.194;2023-04-26T05:31:08;7.70;99.90
4245;DHT22;2136;48.502;9.194;2023-04-26T05:33:35;7.70;99.90
4245;DHT22;2136;48.502;9.194;2023-04-26T05:36:02;7.70;99.90
4245;DHT22;2136;48.502;9.194;2023-04-26T05:38:29;7.70;99.90
4245;DHT22;2136;48.502;9.194;2023-04-26T05:40:58;7.80;99.90
4245;DHT22;2136;48.502;9.194;2023-04-26T05:43:24;7.90;99.90
4245;DHT22;2136;48.502;9.194;2023-04-26T05:45:52;8.00;99.90
4245;DHT22;2136;48.502;9.194;2023-04-26T05:48:19;8.10;99.90
4245;DHT22;2136;48.502;9.194;2023-04-26T05:50:47;8.20;99.90
4245;DHT22;2136;48.502;9.194;2023-04-26T05:53:14;8.30;98.90
4245;DHT22;2136;48.502;9.194;2023-04-26T05:55:41;8.40;97.80
4245;DHT22;2136;48.502;9.194;2023-04-26T05:58:09;8.40;97.00
4245;DHT22;2136;48.502;9.194;2023-04-26T06:00:36;8.50;96.30
4245;DHT22;2136;48.502;9.194;2023-04-26T06:03:04;8.60;95.70
4245;DHT22;2136;48.502;9.194;2023-04-26T06:05:31;8.70;95.40
4245;DHT22;2136;48.502;9.194;2023-04-26T06:07:58;8.80;95.10
4245;DHT22;2136;48.502;9.194;2023-04-26T06:10:26;8.90;94.90
4245;DHT22;2136;48.502;9.194;2023-04-26T06:12:53;8.90;95.00
4245;DHT22;2136;48.502;9.194;2023-04-26T06:15:21;9.10;94.60
4245;DHT22;2136;48.502;9.194;2023-04-26T06:17:48;9.10;94.30
4245;DHT22;2136;48.502;9.194;2023-04-26T06:20:14;9.20;94.10
4245;DHT22;2136;48.502;9.194;2023-04-26T06:22:41;9.30;93.00
4245;DHT22;2136;48.502;9.194;2023-04-26T06:25:09;9.30;92.20
4245;DHT22;2136;48.502;9.194;2023-04-26T06:27:35;9.30;91.40
4245;DHT22;2136;48.502;9.194;2023-04-26T06:30:04;9.50;90.90
4245;DHT22;2136;48.502;9.194;2023-04-26T06:32:33;9.50;91.00
4245;DHT22;2136;48.502;9.194;2023-04-26T06:35:00;9.60;91.80
4245;DHT22;2136;48.502;9.194;2023-04-26T06:37:27;9.90;91.00
4245;DHT22;2136;48.502;9.194;2023-04-26T06:39:54;10.10;90.00
4245;DHT22;2136;48.502;9.194;2023-04-26T06:42:21;10.30;88.20
4245;DHT22;2136;48.502;9.194;2023-04-26T06:44:48;10.30;85.40
4245;DHT22;2136;48.502;9.194;2023-04-26T06:47:15;10.50;84.20
4245;DHT22;2136;48.502;9.194;2023-04-26T06:49:43;10.60;83.30
4245;DHT22;2136;48.502;9.194;2023-04-26T06:52:10;10.60;82.30
4245;DHT22;2136;48.502;9.194;2023-04-26T06:54:37;10.70;80.90
4245;DHT22;2136;48.502;9.194;2023-04-26T06:57:04;10.70;79.90
4245;DHT22;2136;48.502;9.194;2023-04-26T06:59:31;10.70;78.90
4245;DHT22;2136;48.502;9.194;2023-04-26T07:01:58;10.70;77.50
4245;DHT22;2136;48.502;9.194;2023-04-26T07:04:25;10.80;76.70
4245;DHT22;2136;48.502;9.194;2023-04-26T07:06:53;10.80;76.00
4245;DHT22;2136;48.502;9.194;2023-04-26T07:09:21;10.90;75.80
4245;DHT22;2136;48.502;9.194;2023-04-26T07:11:48;10.90;76.00
4245;DHT22;2136;48.502;9.194;2023-04-26T07:14:15;11.00;75.80
4245;DHT22;2136;48.502;9.194;2023-04-26T07:16:43;11.20;74.70
4245;DHT22;2136;48.502;9.194;2023-04-26T07:19:10;11.30;73.70
4245;DHT22;2136;48.502;9.194;2023-04-26T07:21:37;11.40;72.40
4245;DHT22;2136;48.502;9.194;2023-04-26T07:24:06;11.60;72.30
4245;DHT22;2136;48.502;9.194;2023-04-26T07:26:34;11.60;71.40
4245;DHT22;2136;48.502;9.194;2023-04-26T07:29:01;11.80;70.60
4245;DHT22;2136;48.502;9.194;2023-04-26T07:31:29;11.90;70.30
4245;DHT22;2136;48.502;9.194;2023-04-26T07:33:57;12.10;70.10
4245;DHT22;2136;48.502;9.194;2023-04-26T07:36:24;12.20;68.00
4245;DHT22;2136;48.502;9.194;2023-04-26T07:38:52;12.20;66.40
4245;DHT22;2136;48.502;9.194;2023-04-26T07:41:20;12.10;67.00
4245;DHT22;2136;48.502;9.194;2023-04-26T07:43:47;12.10;65.60
4245;DHT22;2136;48.502;9.194;2023-04-26T07:46:14;12.10;65.40
4245;DHT22;2136;48.502;9.194;2023-04-26T07:48:41;12.10;65.50
4245;DHT22;2136;48.502;9.194;2023-04-26T07:51:10;12.20;65.90
4245;DHT22;2136;48.502;9.194;2023-04-26T07:53:37;12.30;66.20
4245;DHT22;2136;48.502;9.194;2023-04-26T07:56:05;12.40;65.50
4245;DHT22;2136;48.502;9.194;2023-04-26T07:58:35;12.50;65.70
4245;DHT22;2136;48.502;9.194;2023-04-26T08:01:03;12.50;64.50
4245;DHT22;2136;48.502;9.194;2023-04-26T08:03:30;12.60;63.90
4245;DHT22;2136;48.502;9.194;2023-04-26T08:05:57;12.70;63.70
4245;DHT22;2136;48.502;9.194;2023-04-26T08:08:25;12.50;63.00
4245;DHT22;2136;48.502;9.194;2023-04-26T08:10:52;12.70;63.30
4245;DHT22;2136;48.502;9.194;2023-04-26T08:13:20;12.60;63.00
4245;DHT22;2136;48.502;9.194;2023-04-26T08:15:48;12.60;64.00
4245;DHT22;2136;48.502;9.194;2023-04-26T08:18:15;12.70;65.40
4245;DHT22;2136;48.502;9.194;2023-04-26T08:20:42;12.90;65.20
4245;DHT22;2136;48.502;9.194;2023-04-26T08:23:09;13.10;63.80
4245;DHT22;2136;48.502;9.194;2023-04-26T08:25:36;13.30;62.40
4245;DHT22;2136;48.502;9.194;2023-04-26T08:28:03;13.50;59.20
4245;DHT22;2136;48.502;9.194;2023-04-26T08:30:30;13.80;60.20
4245;DHT22;2136;48.502;9.194;2023-04-26T08:32:58;14.00;58.60
4245;DHT22;2136;48.502;9.194;2023-04-26T08:35:25;14.30;57.90
4245;DHT22;2136;48.502;9.194;2023-04-26T08:37:52;14.60;57.10
4245;DHT22;2136;48.502;9.194;2023-04-26T08:40:22;14.70;56.60
4245;DHT22;2136;48.502;9.194;2023-04-26T08:42:50;14.80;56.00
4245;DHT22;2136;48.502;9.194;2023-04-26T08:45:18;14.90;56.40
4245;DHT22;2136;48.502;9.194;2023-04-26T08:47:47;14.90;56.30
4245;DHT22;2136;48.502;9.194;2023-04-26T08:50:18;15.20;56.40
4245;DHT22;2136;48.502;9.194;2023-04-26T08:52:47;15.30;55.30
4245;DHT22;2136;48.502;9.194;2023-04-26T08:55:16;15.40;53.90
4245;DHT22;2136;48.502;9.194;2023-04-26T08:57:45;15.30;51.90
4245;DHT22;2136;48.502;9.194;2023-04-26T09:00:13;15.40;52.90
4245;DHT22;2136;48.502;9.194;2023-04-26T09:02:41;16.20;54.00
4245;DHT22;2136;48.502;9.194;2023-04-26T09:05:09;16.90;52.90
4245;DHT22;2136;48.502;9.194;2023-04-26T09:07:40;17.60;51.90
4245;DHT22;2136;48.502;9.194;2023-04-26T09:10:08;18.20;49.90
4245;DHT22;2136;48.502;9.194;2023-04-26T09:12:36;18.90;48.40
4245;DHT22;2136;48.502;9.194;2023-04-26T09:15:04;19.10;47.40
4245;DHT22;2136;48.502;9.194;2023-04-26T09:17:33;19.30;47.50
4245;DHT22;2136;48.502;9.194;2023-04-26T09:20:17;20.10;46.90
4245;DHT22;2136;48.502;9.194;2023-04-26T09:22:46;20.30;45.90
4245;DHT22;2136;48.502;9.194;2023-04-26T09:25:15;20.00;44.90
4245;DHT22;2136;48.502;9.194;2023-04-26T09:27:43;19.70;45.00
4245;DHT22;2136;48.502;9.194;2023-04-26T09:30:15;19.40;44.10
4245;DHT22;2136;48.502;9.194;2023-04-26T09:32:50;20.10;44.10
4245;DHT22;2136;48.502;9.194;2023-04-26T09:35:26;21.10;43.30
4245;DHT22;2136;48.502;9.194;2023-04-26T09:37:56;23.10;42.60
4245;DHT22;2136;48.502;9.194;2023-04-26T09:40:25;24.90;41.10
4245;DHT22;2136;48.502;9.194;2023-04-26T09:43:00;26.40;37.90
4245;DHT22;2136;48.502;9.194;2023-04-26T09:45:27;27.00;36.10
4245;DHT22;2136;48.502;9.194;2023-04-26T09:47:54;26.70;35.30
4245;DHT22;2136;48.502;9.194;2023-04-26T09:50:29;27.10;35.70
4245;DHT22;2136;48.502;9.194;2023-04-26T09:52:58;28.80;35.50
4245;DHT22;2136;48.502;9.194;2023-04-26T09:55:26;29.50;33.10
4245;DHT22;2136;48.502;9.194;2023-04-26T09:57:54;29.70;31.20
4245;DHT22;2136;48.502;9.194;2023-04-26T10:03:05;29.70;28.40
4245;DHT22;2136;48.502;9.194;2023-04-26T10:05:33;28.70;28.20
4245;DHT22;2136;48.502;9.194;2023-04-26T10:08:01;27.30;29.00
4245;DHT22;2136;48.502;9.194;2023-04-26T10:10:29;26.20;30.00
4245;DHT22;2136;48.502;9.194;2023-04-26T10:12:56;26.50;32.20
4245;DHT22;2136;48.502;9.194;2023-04-26T10:15:23;28.50;32.60
4245;DHT22;2136;48.502;9.194;2023-04-26T10:17:50;29.90;30.00
4245;DHT22;2136;48.502;9.194;2023-04-26T10:20:19;29.50;29.20
4245;DHT22;2136;48.502;9.194;2023-04-26T10:22:51;28.40;28.10
4245;DHT22;2136;48.502;9.194;2023-04-26T10:25:19;27.20;28.40
4245;DHT22;2136;48.502;9.194;2023-04-26T10:27:47;26.10;28.90
4245;DHT22;2136;48.502;9.194;2023-04-26T10:30:15;25.60;30.70
4245;DHT22;2136;48.502;9.194;2023-04-26T10:33:16;25.70;32.10
4245;DHT22;2136;48.502;9.194;2023-04-26T10:36:06;26.30;31.90
4245;DHT22;2136;48.502;9.194;2023-04-26T10:38:35;28.90;33.00
4245;DHT22;2136;48.502;9.194;2023-04-26T10:41:31;31.80;32.50
4245;DHT22;2136;48.502;9.194;2023-04-26T10:44:00;34.80;28.90
4245;DHT22;2136;48.502;9.194;2023-04-26T10:46:49;37.50;27.10
4245;DHT22;2136;48.502;9.194;2023-04-26T10:49:18;40.10;25.20
4245;DHT22;2136;48.502;9.194;2023-04-26T10:52:09;41.20;22.60
4245;DHT22;2136;48.502;9.194;2023-04-26T10:54:54;42.50;22.80
4245;DHT22;2136;48.502;9.194;2023-04-26T10:57:22;43.80;21.40
4245;DHT22;2136;48.502;9.194;2023-04-26T11:00:15;44.60;20.30
4245;DHT22;2136;48.502;9.194;2023-04-26T11:02:43;44.90;19.50
4245;DHT22;2136;48.502;9.194;2023-04-26T11:05:10;45.60;19.60
4245;DHT22;2136;48.502;9.194;2023-04-26T11:08:02;46.30;18.90
4245;DHT22;2136;48.502;9.194;2023-04-26T11:10:29;46.40;17.60
4245;DHT22;2136;48.502;9.194;2023-04-26T11:13:00;45.90;17.40
4245;DHT22;2136;48.502;9.194;2023-04-26T11:15:28;45.20;18.30
4245;DHT22;2136;48.502;9.194;2023-04-26T11:17:56;44.20;18.00
4245;DHT22;2136;48.502;9.194;2023-04-26T11:20:27;42.70;17.90
4245;DHT22;2136;48.502;9.194;2023-04-26T11:22:56;40.30;18.10
4245;DHT22;2136;48.502;9.194;2023-04-26T11:25:24;37.80;18.80
4245;DHT22;2136;48.502;9.194;2023-04-26T11:27:57;35.50;18.80
4245;DHT22;2136;48.502;9.194;2023-04-26T11:30:24;33.30;19.40
4245;DHT22;2136;48.502;9.194;2023-04-26T11:32:51;31.40;20.70
4245;DHT22;2136;48.502;9.194;2023-04-26T11:35:20;30.30;21.70
4245;DHT22;2136;48.502;9.194;2023-04-26T11:37:47;29.20;22.50
4245;DHT22;2136;48.502;9.194;2023-04-26T11:40:18;28.10;23.70
4245;DHT22;2136;48.502;9.194;2023-04-26T11:42:44;27.20;25.10
4245;DHT22;2136;48.502;9.194;2023-04-26T11:45:14;26.40;26.90
4245;DHT22;2136;48.502;9.194;2023-04-26T11:47:43;25.70;27.60
4245;DHT22;2136;48.502;9.194;2023-04-26T11:50:10;25.10;27.70
4245;DHT22;2136;48.502;9.194;2023-04-26T11:52:37;24.80;27.80
4245;DHT22;2136;48.502;9.194;2023-04-26T11:55:06;24.40;27.40
4245;DHT22;2136;48.502;9.194;2023-04-26T11:57:36;24.10;27.40
4245;DHT22;2136;48.502;9.194;2023-04-26T12:00:07;23.70;28.20
4245;DHT22;2136;48.502;9.194;2023-04-26T12:02:36;23.40;27.90
4245;DHT22;2136;48.502;9.194;2023-04-26T12:05:03;23.10;28.30
4245;DHT22;2136;48.502;9.194;2023-04-26T12:07:34;22.90;28.90
4245;DHT22;2136;48.502;9.194;2023-04-26T12:10:20;22.60;29.10
4245;DHT22;2136;48.502;9.194;2023-04-26T12:12:49;22.30;29.50
4245;DHT22;2136;48.502;9.194;2023-04-26T12:15:17;21.90;29.20
4245;DHT22;2136;48.502;9.194;2023-04-26T12:17:52;21.50;29.60
4245;DHT22;2136;48.502;9.194;2023-04-26T12:20:24;21.20;29.40
4245;DHT22;2136;48.502;9.194;2023-04-26T12:22:59;20.90;29.90
4245;DHT22;2136;48.502;9.194;2023-04-26T12:25:26;20.80;31.30
4245;DHT22;2136;48.502;9.194;2023-04-26T12:27:54;20.80;32.30
4245;DHT22;2136;48.502;9.194;2023-04-26T12:30:21;20.70;32.30
4245;DHT22;2136;48.502;9.194;2023-04-26T12:32:48;20.50;32.20
4245;DHT22;2136;48.502;9.194;2023-04-26T12:35:15;20.40;32.10
4245;DHT22;2136;48.502;9.194;2023-04-26T12:37:41;20.50;33.60
4245;DHT22;2136;48.502;9.194;2023-04-26T12:40:09;20.40;32.50
4245;DHT22;2136;48.502;9.194;2023-04-26T12:42:37;20.40;33.50
4245;DHT22;2136;48.502;9.194;2023-04-26T12:45:06;20.50;32.50
4245;DHT22;2136;48.502;9.194;2023-04-26T12:47:33;20.60;32.30
4245;DHT22;2136;48.502;9.194;2023-04-26T12:50:00;20.60;31.70
4245;DHT22;2136;48.502;9.194;2023-04-26T12:52:28;20.40;31.40
4245;DHT22;2136;48.502;9.194;2023-04-26T12:54:55;20.30;31.30
4245;DHT22;2136;48.502;9.194;2023-04-26T12:57:22;20.10;31.70
4245;DHT22;2136;48.502;9.194;2023-04-26T12:59:49;20.10;32.30
4245;DHT22;2136;48.502;9.194;2023-04-26T13:02:17;20.30;32.40
4245;DHT22;2136;48.502;9.194;2023-04-26T13:04:44;20.50;32.30
4245;DHT22;2136;48.502;9.194;2023-04-26T13:07:11;20.50;32.60
4245;DHT22;2136;48.502;9.194;2023-04-26T13:09:38;20.50;33.80
4245;DHT22;2136;48.502;9.194;2023-04-26T13:12:05;20.50;33.00
4245;DHT22;2136;48.502;9.194;2023-04-26T13:14:32;20.60;33.60
4245;DHT22;2136;48.502;9.194;2023-04-26T13:16:59;20.70;33.50
4245;DHT22;2136;48.502;9.194;2023-04-26T13:19:27;21.00;33.00
4245;DHT22;2136;48.502;9.194;2023-04-26T13:21:54;21.80;33.80
4245;DHT22;2136;48.502;9.194;2023-04-26T13:24:21;22.20;32.00
4245;DHT22;2136;48.502;9.194;2023-04-26T13:26:48;22.20;31.70
4245;DHT22;2136;48.502;9.194;2023-04-26T13:29:15;22.10;32.10
4245;DHT22;2136;48.502;9.194;2023-04-26T13:31:41;21.90;31.40
4245;DHT22;2136;48.502;9.194;2023-04-26T13:34:08;21.60;30.70
4245;DHT22;2136;48.502;9.194;2023-04-26T13:36:39;21.30;30.80
4245;DHT22;2136;48.502;9.194;2023-04-26T13:39:06;21.20;31.30
4245;DHT22;2136;48.502;9.194;2023-04-26T13:41:33;21.00;31.10
4245;DHT22;2136;48.502;9.194;2023-04-26T13:44:01;20.90;31.20
4245;DHT22;2136;48.502;9.194;2023-04-26T13:46:29;20.70;32.50
4245;DHT22;2136;48.502;9.194;2023-04-26T13:48:56;20.60;32.20
4245;DHT22;2136;48.502;9.194;2023-04-26T13:51:23;20.60;32.10
4245;DHT22;2136;48.502;9.194;2023-04-26T13:53:53;20.70;32.20
4245;DHT22;2136;48.502;9.194;2023-04-26T13:56:19;20.60;32.00
4245;DHT22;2136;48.502;9.194;2023-04-26T13:58:48;20.50;32.00
4245;DHT22;2136;48.502;9.194;2023-04-26T14:01:15;20.30;32.30
4245;DHT22;2136;48.502;9.194;2023-04-26T14:03:41;20.30;32.40
4245;DHT22;2136;48.502;9.194;2023-04-26T14:06:08;20.30;32.20
4245;DHT22;2136;48.502;9.194;2023-04-26T14:08:35;20.20;32.20
4245;DHT22;2136;48.502;9.194;2023-04-26T14:11:04;20.20;32.40
4245;DHT22;2136;48.502;9.194;2023-04-26T14:13:32;20.30;33.20
4245;DHT22;2136;48.502;9.194;2023-04-26T14:15:59;20.40;32.70
4245;DHT22;2136;48.502;9.194;2023-04-26T14:18:26;20.50;33.00
4245;DHT22;2136;48.502;9.194;2023-04-26T14:20:54;20.40;32.70
4245;DHT22;2136;48.502;9.194;2023-04-26T14:23:21;20.40;32.70
4245;DHT22;2136;48.502;9.194;2023-04-26T14:25:50;20.30;33.10
4245;DHT22;2136;48.502;9.194;2023-04-26T14:28:19;20.40;33.40
4245;DHT22;2136;48.502;9.194;2023-04-26T14:30:46;20.50;33.50
4245;DHT22;2136;48.502;9.194;2023-04-26T14:33:12;21.00;33.30
4245;DHT22;2136;48.502;9.194;2023-04-26T14:35:39;21.30;33.00
4245;DHT22;2136;48.502;9.194;2023-04-26T14:38:06;21.10;33.20
4245;DHT22;2136;48.502;9.194;2023-04-26T14:40:35;20.80;32.90
4245;DHT22;2136;48.502;9.194;2023-04-26T14:43:02;20.50;33.40
4245;DHT22;2136;48.502;9.194;2023-04-26T14:45:30;20.30;33.90
4245;DHT22;2136;48.502;9.194;2023-04-26T14:47:58;20.00;33.80
4245;DHT22;2136;48.502;9.194;2023-04-26T14:50:26;19.80;33.20
4245;DHT22;2136;48.502;9.194;2023-04-26T14:52:53;19.60;33.30
4245;DHT22;2136;48.502;9.194;2023-04-26T14:55:20;19.30;33.60
4245;DHT22;2136;48.502;9.194;2023-04-26T14:57:48;19.00;34.10
4245;DHT22;2136;48.502;9.194;2023-04-26T15:00:15;18.80;34.60
4245;DHT22;2136;48.502;9.194;2023-04-26T15:02:43;18.60;34.90
4245;DHT22;2136;48.502;9.194;2023-04-26T15:05:11;18.40;35.30
4245;DHT22;2136;48.502;9.194;2023-04-26T15:07:38;18.40;36.10
4245;DHT22;2136;48.502;9.194;2023-04-26T15:10:06;18.30;36.10
4245;DHT22;2136;48.502;9.194;2023-04-26T15:12:33;18.20;36.50
4245;DHT22;2136;48.502;9.194;2023-04-26T15:15:00;18.20;36.80
4245;DHT22;2136;48.502;9.194;2023-04-26T15:17:30;18.10;36.90
4245;DHT22;2136;48.502;9.194;2023-04-26T15:19:59;18.10;36.60
4245;DHT22;2136;48.502;9.194;2023-04-26T15:22:26;18.00;37.20
4245;DHT22;2136;48.502;9.194;2023-04-26T15:24:53;17.90;37.30
4245;DHT22;2136;48.502;9.194;2023-04-26T15:27:20;17.80;37.30
4245;DHT22;2136;48.502;9.194;2023-04-26T15:29:47;17.70;37.70
4245;DHT22;2136;48.502;9.194;2023-04-26T15:32:14;17.70;37.80
4245;DHT22;2136;48.502;9.194;2023-04-26T15:34:41;17.60;38.00
4245;DHT22;2136;48.502;9.194;2023-04-26T15:37:11;17.60;37.80
4245;DHT22;2136;48.502;9.194;2023-04-26T15:39:37;17.50;37.80
4245;DHT22;2136;48.502;9.194;2023-04-26T15:42:05;17.50;38.40
4245;DHT22;2136;48.502;9.194;2023-04-26T15:44:32;17.50;37.70
4245;DHT22;2136;48.502;9.194;2023-04-26T15:46:59;17.50;37.90
4245;DHT22;2136;48.502;9.194;2023-04-26T15:49:27;17.50;37.50
4245;DHT22;2136;48.502;9.194;2023-04-26T15:51:54;17.40;37.90
4245;DHT22;2136;48.502;9.194;2023-04-26T15:54:22;17.30;37.40
4245;DHT22;2136;48.502;9.194;2023-04-26T15:56:50;17.20;37.70
4245;DHT22;2136;48.502;9.194;2023-04-26T15:59:17;17.20;38.30
4245;DHT22;2136;48.502;9.194;2023-04-26T16:01:44;17.10;38.20
4245;DHT22;2136;48.502;9.194;2023-04-26T16:04:11;17.00;38.20
4245;DHT22;2136;48.502;9.194;2023-04-26T16:06:38;16.80;37.80
4245;DHT22;2136;48.502;9.194;2023-04-26T16:09:05;16.70;38.60
4245;DHT22;2136;48.502;9.194;2023-04-26T16:11:34;16.50;39.50
4245;DHT22;2136;48.502;9.194;2023-04-26T16:14:01;16.40;39.60
4245;DHT22;2136;48.502;9.194;2023-04-26T16:16:28;16.30;40.20